createdAt,value
2017-06-19T00:01:08.629Z,74.50
2017-06-19T00:03:36.199Z,75.00
2017-06-19T00:06:03.767Z,75.10
2017-06-19T00:08:31.346Z,75.20
2017-06-19T00:10:58.932Z,75.00
2017-06-19T00:13:26.520Z,74.80
2017-06-19T00:15:54.098Z,75.30
2017-06-19T00:18:21.694Z,75.30
2017-06-19T00:20:55.649Z,75.20
2017-06-19T00:23:28.873Z,75.00
2017-06-19T00:25:56.498Z,75.50
2017-06-19T00:28:24.084Z,76.40
2017-06-19T00:30:51.659Z,77.10
2017-06-19T00:33:19.213Z,77.40
2017-06-19T00:35:46.813Z,78.00
2017-06-19T00:38:14.375Z,78.00
2017-06-19T00:40:41.957Z,78.00
2017-06-19T00:43:09.617Z,77.80
2017-06-19T00:45:37.173Z,78.00
2017-06-19T00:48:04.728Z,78.10
2017-06-19T00:50:32.438Z,78.50
2017-06-19T00:53:00.014Z,78.20
2017-06-19T00:55:27.582Z,78.50
2017-06-19T00:57:55.923Z,78.70
2017-06-19T01:00:23.478Z,78.60
2017-06-19T01:02:51.094Z,78.70
2017-06-19T01:05:19.431Z,79.20
2017-06-19T01:07:46.977Z,79.00
2017-06-19T01:10:14.578Z,79.20
2017-06-19T01:12:42.129Z,79.00
2017-06-19T01:15:09.695Z,79.00
2017-06-19T01:17:37.277Z,79.20
2017-06-19T01:20:05.609Z,79.40
2017-06-19T01:22:33.249Z,79.30
2017-06-19T01:25:00.824Z,79.70
2017-06-19T01:27:28.462Z,79.80
2017-06-19T01:29:56.024Z,79.80
2017-06-19T01:32:23.577Z,79.90
2017-06-19T01:34:51.186Z,80.10
2017-06-19T01:37:18.738Z,80.40
2017-06-19T01:39:46.316Z,80.60
2017-06-19T01:42:13.910Z,80.80
2017-06-19T01:44:42.249Z,81.00
2017-06-19T01:47:09.812Z,80.80
2017-06-19T01:49:37.374Z,80.80
2017-06-19T01:52:05.013Z,80.80
2017-06-19T01:54:32.602Z,80.70
2017-06-19T01:57:00.157Z,81.20
2017-06-19T01:59:27.733Z,81.30
2017-06-19T02:01:55.313Z,81.50
2017-06-19T02:04:23.649Z,81.60
2017-06-19T02:06:51.206Z,81.50
2017-06-19T02:09:18.785Z,81.20
2017-06-19T02:11:46.352Z,81.00
2017-06-19T02:14:13.910Z,81.20
2017-06-19T02:16:41.504Z,81.40
2017-06-19T02:19:09.906Z,81.70
2017-06-19T02:21:37.473Z,81.80
2017-06-19T02:24:05.046Z,81.90
2017-06-19T02:26:32.612Z,81.60
2017-06-19T02:29:00.250Z,81.60
2017-06-19T02:31:27.806Z,81.70
2017-06-19T02:33:55.372Z,81.70
2017-06-19T02:36:22.970Z,82.10
2017-06-19T02:38:50.538Z,81.90
2017-06-19T02:41:18.133Z,82.70
2017-06-19T02:43:45.690Z,82.30
2017-06-19T02:46:13.263Z,82.60
2017-06-19T02:48:40.834Z,82.70
2017-06-19T02:51:08.419Z,82.60
2017-06-19T02:53:35.998Z,82.70
2017-06-19T02:56:03.568Z,82.60
2017-06-19T02:58:31.137Z,82.40
2017-06-19T03:00:58.695Z,82.80
2017-06-19T03:03:26.258Z,83.70
2017-06-19T03:05:53.859Z,83.60
2017-06-19T03:08:21.442Z,84.00
2017-06-19T03:10:48.999Z,83.80
2017-06-19T03:13:16.553Z,84.20
2017-06-19T03:15:44.307Z,84.10
2017-06-19T03:18:11.873Z,84.10
2017-06-19T03:20:39.453Z,84.20
2017-06-19T03:23:07.038Z,83.70
2017-06-19T03:25:34.605Z,83.80
2017-06-19T03:28:02.181Z,83.90
2017-06-19T03:30:29.759Z,83.70
2017-06-19T03:32:57.315Z,83.20
2017-06-19T03:35:24.906Z,83.20
2017-06-19T03:37:52.482Z,83.70
2017-06-19T03:40:20.049Z,83.80
2017-06-19T03:42:47.626Z,83.30
2017-06-19T03:45:15.187Z,83.20
2017-06-19T03:47:42.756Z,83.60
2017-06-19T03:50:10.372Z,82.90
2017-06-19T03:52:37.931Z,83.20
2017-06-19T03:55:05.487Z,83.10
2017-06-19T03:57:33.079Z,82.70
2017-06-19T04:00:00.660Z,82.10
2017-06-19T04:02:28.211Z,81.80
2017-06-19T04:04:55.824Z,82.00
2017-06-19T04:07:23.418Z,82.10
2017-06-19T04:09:50.982Z,81.70
2017-06-19T04:12:18.578Z,81.60
2017-06-19T04:14:46.911Z,80.10
2017-06-19T04:17:14.550Z,80.00
2017-06-19T04:19:42.106Z,75.20
2017-06-19T04:22:09.710Z,69.10
2017-06-19T04:24:37.300Z,62.20
2017-06-19T04:27:04.901Z,58.30
2017-06-19T04:29:32.549Z,55.40
2017-06-19T04:32:00.135Z,53.10
2017-06-19T04:34:27.701Z,50.30
2017-06-19T04:36:55.270Z,48.40
2017-06-19T04:39:22.877Z,46.20
2017-06-19T04:41:51.222Z,43.60
2017-06-19T04:44:18.814Z,43.60
2017-06-19T04:46:47.166Z,41.00
2017-06-19T04:49:14.779Z,41.50
2017-06-19T04:51:42.350Z,39.50
2017-06-19T04:54:09.931Z,38.10
2017-06-19T04:56:37.498Z,37.00
2017-06-19T04:59:05.094Z,36.10
2017-06-19T05:01:33.429Z,33.90
2017-06-19T05:04:00.994Z,33.90
2017-06-19T05:06:28.581Z,33.10
2017-06-19T05:08:56.147Z,32.40
2017-06-19T05:11:23.732Z,31.50
2017-06-19T05:13:51.407Z,30.90
2017-06-19T05:16:18.965Z,31.10
2017-06-19T05:18:46.557Z,31.40
2017-06-19T05:21:14.174Z,29.90
2017-06-19T05:23:41.751Z,29.30
2017-06-19T05:26:09.358Z,29.60
2017-06-19T05:28:36.919Z,29.90
2017-06-19T05:31:04.491Z,29.50
2017-06-19T05:33:32.043Z,29.00
2017-06-19T05:35:59.663Z,28.20
2017-06-19T05:38:27.231Z,28.50
2017-06-19T05:40:54.799Z,27.80
2017-06-19T05:43:22.452Z,28.70
2017-06-19T05:45:50.044Z,27.20
2017-06-19T05:48:17.614Z,27.90
2017-06-19T05:50:45.190Z,27.60
2017-06-19T05:53:13.543Z,28.50
2017-06-19T05:55:41.113Z,28.30
2017-06-19T05:58:08.693Z,28.10
2017-06-19T06:00:37.058Z,26.80
2017-06-19T06:03:04.646Z,26.70
2017-06-19T06:05:32.202Z,26.60
2017-06-19T06:08:00.540Z,25.70
2017-06-19T06:10:28.220Z,25.70
2017-06-19T06:12:55.779Z,25.20
2017-06-19T06:15:23.343Z,24.10
2017-06-19T06:17:50.927Z,24.70
2017-06-19T06:20:19.250Z,24.80
2017-06-19T06:22:46.818Z,24.80
2017-06-19T06:25:14.450Z,25.40
2017-06-19T06:27:42.114Z,25.00
2017-06-19T06:30:09.673Z,24.20
2017-06-19T06:32:37.251Z,23.90
2017-06-19T06:35:04.842Z,23.60
2017-06-19T06:37:32.406Z,23.50
2017-06-19T06:39:59.989Z,23.80
2017-06-19T06:42:27.583Z,22.50
2017-06-19T06:44:55.129Z,22.00
2017-06-19T06:47:22.720Z,22.50
2017-06-19T06:49:50.334Z,22.90
2017-06-19T06:52:17.890Z,22.40
2017-06-19T06:54:46.248Z,23.40
2017-06-19T06:57:13.836Z,23.00
2017-06-19T06:59:41.492Z,23.10
2017-06-19T07:02:09.045Z,21.50
2017-06-19T07:04:36.689Z,21.90
2017-06-19T07:07:04.270Z,22.20
2017-06-19T07:09:31.819Z,21.70
2017-06-19T07:11:59.403Z,22.00
2017-06-19T07:14:27.730Z,21.30
2017-06-19T07:16:55.290Z,21.30
2017-06-19T07:19:22.874Z,21.30
2017-06-19T07:21:50.450Z,21.70
2017-06-19T07:24:18.017Z,21.50
2017-06-19T07:26:45.598Z,20.70
2017-06-19T07:29:13.989Z,21.80
2017-06-19T07:31:41.569Z,21.70
2017-06-19T07:34:09.142Z,21.90
2017-06-19T07:36:36.705Z,21.00
2017-06-19T07:39:04.282Z,20.20
2017-06-19T07:41:31.851Z,20.80
2017-06-19T07:43:59.417Z,21.40
2017-06-19T07:46:27.051Z,20.50
2017-06-19T07:48:54.610Z,22.00
2017-06-19T07:51:22.165Z,22.00
2017-06-19T07:53:49.742Z,20.50
2017-06-19T07:56:17.329Z,20.40
2017-06-19T07:58:44.907Z,19.80
2017-06-19T08:01:13.234Z,20.40
2017-06-19T08:03:40.836Z,20.50
2017-06-19T08:06:08.478Z,20.30
2017-06-19T08:08:36.056Z,19.90
2017-06-19T08:11:03.650Z,19.80
2017-06-19T08:13:31.201Z,20.00
2017-06-19T08:15:58.783Z,21.70
2017-06-19T08:18:26.360Z,23.50
2017-06-19T08:20:53.998Z,22.00
2017-06-19T08:23:27.249Z,20.80
2017-06-19T08:25:54.810Z,20.70
2017-06-19T08:28:22.407Z,20.20
2017-06-19T08:30:49.978Z,19.90
2017-06-19T08:33:17.573Z,19.70
2017-06-19T08:35:45.147Z,20.90
2017-06-19T08:38:12.705Z,21.50
2017-06-19T08:40:40.297Z,19.60
2017-06-19T08:43:08.622Z,19.90
2017-06-19T08:45:36.170Z,19.80
2017-06-19T08:48:03.766Z,20.20
2017-06-19T08:50:31.341Z,20.20
2017-06-19T08:52:58.894Z,18.40
2017-06-19T08:55:26.507Z,18.10
2017-06-19T08:57:54.066Z,18.10
2017-06-19T09:00:21.626Z,18.40
2017-06-19T09:02:49.209Z,17.00
2017-06-19T09:05:16.767Z,17.00
2017-06-19T09:07:44.353Z,17.00
2017-06-19T09:10:12.014Z,17.00
2017-06-19T09:12:40.021Z,16.80
2017-06-19T09:15:08.474Z,18.10
2017-06-19T09:17:36.063Z,18.10
2017-06-19T09:20:03.655Z,19.50
2017-06-19T09:22:31.222Z,18.20
2017-06-19T09:24:58.782Z,17.40
2017-06-19T09:27:26.389Z,18.90
2017-06-19T09:29:54.050Z,18.10
2017-06-19T09:32:21.618Z,17.50
2017-06-19T09:34:49.978Z,18.40
2017-06-19T09:37:17.547Z,18.40
2017-06-19T09:39:45.117Z,18.10
2017-06-19T09:42:12.695Z,16.80
2017-06-19T09:44:41.006Z,19.30
2017-06-19T09:47:08.604Z,19.20
2017-06-19T09:49:36.274Z,18.40
2017-06-19T09:52:03.826Z,17.90
2017-06-19T09:54:31.400Z,19.00
2017-06-19T09:56:59.002Z,18.80
2017-06-19T09:59:26.585Z,19.90
2017-06-19T10:01:54.143Z,21.30
2017-06-19T10:04:21.694Z,18.90
2017-06-19T10:06:49.269Z,19.50
2017-06-19T10:09:16.837Z,19.40
2017-06-19T10:11:44.511Z,18.40
2017-06-19T10:14:12.090Z,19.80
2017-06-19T10:16:39.661Z,19.70
2017-06-19T10:19:07.244Z,17.60
2017-06-19T10:21:34.835Z,18.60
2017-06-19T10:24:02.418Z,18.90
2017-06-19T10:26:30.101Z,18.40
2017-06-19T10:28:57.647Z,20.50
2017-06-19T10:31:25.333Z,19.10
2017-06-19T10:33:53.796Z,19.20
2017-06-19T10:36:21.390Z,19.20
2017-06-19T10:38:49.002Z,20.10
2017-06-19T10:41:16.595Z,20.50
2017-06-19T10:43:44.162Z,22.00
2017-06-19T10:46:12.490Z,21.10
2017-06-19T10:48:40.089Z,21.10
2017-06-19T10:51:07.765Z,19.50
2017-06-19T10:53:35.334Z,22.50
2017-06-19T10:56:03.699Z,19.60
2017-06-19T10:58:31.294Z,19.60
2017-06-19T11:00:58.870Z,20.10
2017-06-19T11:03:26.448Z,20.20
2017-06-19T11:05:54.056Z,21.70
2017-06-19T11:08:22.454Z,22.10
2017-06-19T11:10:50.055Z,21.40
2017-06-19T11:13:17.618Z,23.00
2017-06-19T11:15:45.215Z,23.10
2017-06-19T11:18:13.558Z,22.90
2017-06-19T11:20:41.132Z,22.90
2017-06-19T11:23:08.694Z,22.90
2017-06-19T11:25:36.312Z,22.00
2017-06-19T11:28:03.889Z,23.40
2017-06-19T11:30:31.491Z,22.70
2017-06-19T11:32:59.205Z,25.00
2017-06-19T11:35:26.771Z,22.80
2017-06-19T11:37:54.366Z,24.50
2017-06-19T11:40:21.930Z,22.50
2017-06-19T11:42:49.509Z,23.90
2017-06-19T11:45:17.139Z,23.60
2017-06-19T11:47:44.706Z,25.00
2017-06-19T11:50:12.263Z,23.50
2017-06-19T11:52:39.862Z,23.50
2017-06-19T11:55:07.418Z,26.60
2017-06-19T11:57:34.979Z,24.00
2017-06-19T12:00:02.574Z,23.60
2017-06-19T12:02:30.182Z,26.10
2017-06-19T12:04:57.746Z,25.00
2017-06-19T12:07:25.338Z,24.90
2017-06-19T12:09:52.906Z,26.10
2017-06-19T12:12:20.470Z,26.10
2017-06-19T12:14:48.064Z,26.40
2017-06-19T12:17:15.648Z,26.10
2017-06-19T12:19:43.205Z,28.40
2017-06-19T12:22:10.806Z,27.30
2017-06-19T12:24:38.362Z,27.10
2017-06-19T12:27:05.944Z,28.00
2017-06-19T12:29:33.543Z,28.30
2017-06-19T12:32:01.146Z,27.60
2017-06-19T12:34:28.694Z,28.80
2017-06-19T12:36:56.293Z,29.10
2017-06-19T12:39:23.862Z,28.10
2017-06-19T12:41:51.449Z,28.00
2017-06-19T12:44:19.043Z,28.30
2017-06-19T12:46:47.370Z,29.20
2017-06-19T12:49:14.922Z,29.00
2017-06-19T12:51:42.506Z,28.80
2017-06-19T12:54:10.102Z,27.70
2017-06-19T12:56:37.696Z,28.90
2017-06-19T12:59:05.298Z,28.90
2017-06-19T13:01:32.861Z,29.10
2017-06-19T13:04:00.428Z,28.80
2017-06-19T13:06:28.009Z,29.00
2017-06-19T13:08:55.596Z,26.20
2017-06-19T13:11:23.158Z,26.50
2017-06-19T13:13:50.755Z,27.90
2017-06-19T13:16:18.317Z,27.80
2017-06-19T13:18:45.910Z,25.60
2017-06-19T13:21:14.249Z,27.00
2017-06-19T13:23:41.824Z,27.00
2017-06-19T13:26:09.399Z,25.80
2017-06-19T13:28:36.966Z,26.60
2017-06-19T13:31:05.338Z,26.60
2017-06-19T13:33:32.918Z,26.60
2017-06-19T13:36:00.477Z,25.80
2017-06-19T13:38:28.057Z,28.60
2017-06-19T13:40:55.643Z,27.90
2017-06-19T13:43:23.202Z,28.40
2017-06-19T13:45:50.802Z,30.00
2017-06-19T13:48:18.361Z,29.10
2017-06-19T13:50:45.958Z,29.60
2017-06-19T13:53:13.525Z,32.40
2017-06-19T13:55:41.082Z,30.00
2017-06-19T13:58:08.670Z,29.90
2017-06-19T14:00:36.287Z,29.70
2017-06-19T14:03:04.645Z,31.10
2017-06-19T14:05:32.315Z,31.00
2017-06-19T14:07:59.923Z,29.40
2017-06-19T14:10:27.496Z,28.40
2017-06-19T14:12:55.097Z,31.50
2017-06-19T14:15:22.685Z,28.70
2017-06-19T14:17:50.256Z,31.50
2017-06-19T14:20:17.834Z,32.30
2017-06-19T14:22:45.410Z,29.80
2017-06-19T14:25:12.975Z,33.00
2017-06-19T14:27:40.558Z,32.50
2017-06-19T14:30:08.151Z,29.80
2017-06-19T14:32:35.726Z,31.70
2017-06-19T14:35:03.311Z,30.90
2017-06-19T14:37:30.863Z,31.20
2017-06-19T14:39:58.462Z,32.10
2017-06-19T14:42:26.057Z,31.10
2017-06-19T14:44:53.635Z,30.40
2017-06-19T14:47:21.205Z,32.10
2017-06-19T14:49:48.786Z,31.10
2017-06-19T14:52:16.340Z,32.20
2017-06-19T14:54:43.978Z,29.90
2017-06-19T14:57:11.564Z,30.20
2017-06-19T14:59:39.120Z,30.60
2017-06-19T15:02:06.724Z,30.60
2017-06-19T15:04:35.073Z,31.40
2017-06-19T15:07:02.715Z,31.40
2017-06-19T15:09:30.338Z,30.90
2017-06-19T15:11:58.681Z,30.60
2017-06-19T15:14:26.238Z,30.50
2017-06-19T15:16:53.837Z,31.90
2017-06-19T15:19:22.164Z,30.50
2017-06-19T15:21:55.383Z,30.50
2017-06-19T15:24:22.965Z,31.30
2017-06-19T15:26:50.542Z,30.50
2017-06-19T15:29:18.145Z,31.60
2017-06-19T15:31:45.719Z,30.70
2017-06-19T15:34:13.354Z,31.10
2017-06-19T15:36:40.913Z,30.80
2017-06-19T15:39:08.478Z,31.40
2017-06-19T15:41:36.203Z,32.10
2017-06-19T15:44:04.547Z,32.00
2017-06-19T15:46:32.107Z,31.90
2017-06-19T15:48:59.691Z,32.10
2017-06-19T15:51:27.308Z,31.50
2017-06-19T15:53:54.899Z,30.80
2017-06-19T15:56:22.470Z,31.80
2017-06-19T15:58:50.090Z,31.40
2017-06-19T16:01:17.723Z,31.40
2017-06-19T16:03:45.310Z,31.60
2017-06-19T16:06:12.878Z,31.10
2017-06-19T16:08:40.463Z,31.70
2017-06-19T16:11:08.035Z,32.70
2017-06-19T16:13:35.627Z,31.60
2017-06-19T16:16:03.184Z,32.00
2017-06-19T16:18:31.518Z,32.70
2017-06-19T16:20:59.102Z,32.60
2017-06-19T16:23:26.669Z,33.20
2017-06-19T16:25:54.263Z,32.70
2017-06-19T16:28:21.854Z,32.90
2017-06-19T16:30:49.418Z,32.30
2017-06-19T16:33:16.994Z,33.20
2017-06-19T16:35:44.578Z,33.80
2017-06-19T16:38:12.142Z,32.40
2017-06-19T16:40:40.498Z,33.80
2017-06-19T16:43:08.078Z,33.80
2017-06-19T16:45:36.417Z,34.90
2017-06-19T16:48:03.991Z,34.80
2017-06-19T16:50:31.592Z,34.60
2017-06-19T16:52:59.935Z,33.00
2017-06-19T16:55:27.518Z,32.90
2017-06-19T16:57:55.846Z,33.30
2017-06-19T17:00:23.443Z,33.20
2017-06-19T17:02:51.026Z,34.00
2017-06-19T17:05:19.370Z,34.40
2017-06-19T17:07:46.970Z,34.40
2017-06-19T17:10:14.558Z,34.40
2017-06-19T17:12:42.126Z,33.50
2017-06-19T17:15:09.693Z,33.70
2017-06-19T17:17:37.274Z,34.80
2017-06-19T17:20:04.885Z,34.40
2017-06-19T17:22:32.799Z,34.40
2017-06-19T17:25:00.371Z,35.60
2017-06-19T17:27:27.978Z,34.30
2017-06-19T17:29:55.555Z,34.40
2017-06-19T17:32:23.122Z,34.60
2017-06-19T17:34:50.699Z,35.00
2017-06-19T17:37:18.296Z,34.50
2017-06-19T17:39:46.682Z,35.20
2017-06-19T17:42:15.017Z,35.70
2017-06-19T17:44:42.606Z,35.20
2017-06-19T17:47:10.194Z,36.80
2017-06-19T17:49:38.578Z,36.20
2017-06-19T17:52:06.159Z,36.20
2017-06-19T17:54:33.718Z,35.90
2017-06-19T17:57:01.330Z,36.50
2017-06-19T17:59:28.898Z,37.10
2017-06-19T18:01:56.469Z,37.20
2017-06-19T18:04:24.775Z,36.70
2017-06-19T18:06:52.423Z,37.00
2017-06-19T18:09:20.906Z,37.10
2017-06-19T18:11:49.331Z,37.50
2017-06-19T18:14:16.934Z,37.40
2017-06-19T18:16:45.285Z,37.70
2017-06-19T18:19:12.843Z,36.90
2017-06-19T18:21:40.444Z,38.00
2017-06-19T18:24:08.803Z,38.70
2017-06-19T18:26:36.431Z,38.70
2017-06-19T18:29:03.990Z,39.30
2017-06-19T18:31:31.601Z,38.00
2017-06-19T18:34:00.059Z,38.90
2017-06-19T18:36:27.726Z,38.80
2017-06-19T18:38:55.339Z,39.50
2017-06-19T18:41:22.906Z,41.00
2017-06-19T18:43:50.534Z,41.10
2017-06-19T18:46:18.896Z,42.00
2017-06-19T18:48:46.516Z,41.90
2017-06-19T18:51:14.115Z,42.60
2017-06-19T18:53:41.698Z,42.70
2017-06-19T18:56:10.032Z,43.20
2017-06-19T18:58:37.614Z,43.10
2017-06-19T19:01:05.222Z,43.30
2017-06-19T19:03:32.781Z,43.20
2017-06-19T19:06:00.387Z,43.00
2017-06-19T19:08:27.961Z,44.10
2017-06-19T19:10:55.570Z,44.10
2017-06-19T19:13:23.164Z,44.70
2017-06-19T19:15:50.733Z,44.20
2017-06-19T19:18:18.354Z,44.70
2017-06-19T19:20:45.934Z,45.40
2017-06-19T19:23:13.512Z,44.80
2017-06-19T19:25:41.087Z,45.70
2017-06-19T19:28:08.655Z,45.80
2017-06-19T19:30:36.247Z,47.00
2017-06-19T19:33:03.868Z,48.60
2017-06-19T19:35:31.455Z,48.90
2017-06-19T19:37:59.859Z,47.10
2017-06-19T19:40:27.434Z,47.60
2017-06-19T19:42:55.050Z,49.10
2017-06-19T19:45:23.359Z,50.60
2017-06-19T19:47:51.005Z,50.60
2017-06-19T19:50:18.594Z,51.70
2017-06-19T19:52:46.185Z,52.60
2017-06-19T19:55:13.772Z,52.90
2017-06-19T19:57:41.357Z,54.10
2017-06-19T20:00:09.690Z,54.20
2017-06-19T20:02:37.286Z,54.10
2017-06-19T20:05:04.879Z,54.60
2017-06-19T20:07:32.454Z,55.00
2017-06-19T20:10:00.009Z,55.60
2017-06-19T20:12:27.623Z,56.50
2017-06-19T20:14:55.982Z,57.00
2017-06-19T20:17:23.545Z,56.90
2017-06-19T20:19:51.130Z,57.70
2017-06-19T20:22:18.690Z,58.00
2017-06-19T20:24:47.130Z,58.60
2017-06-19T20:27:14.714Z,59.20
2017-06-19T20:29:42.310Z,58.90
2017-06-19T20:32:09.911Z,58.90
2017-06-19T20:34:37.482Z,58.70
2017-06-19T20:37:05.098Z,59.10
2017-06-19T20:39:32.694Z,59.40
2017-06-19T20:42:00.322Z,60.50
2017-06-19T20:44:27.891Z,61.30
2017-06-19T20:46:55.454Z,61.80
2017-06-19T20:49:23.119Z,62.70
2017-06-19T20:51:50.726Z,63.10
2017-06-19T20:54:18.313Z,63.40
2017-06-19T20:56:45.882Z,63.90
2017-06-19T20:59:13.521Z,63.50
2017-06-19T21:01:41.106Z,63.90
2017-06-19T21:04:08.675Z,63.30
2017-06-19T21:06:36.243Z,63.20
2017-06-19T21:09:03.855Z,63.60
2017-06-19T21:11:31.414Z,63.10
2017-06-19T21:13:58.983Z,63.10
2017-06-19T21:16:26.563Z,63.60
2017-06-19T21:18:54.895Z,63.60
2017-06-19T21:21:22.476Z,63.50
2017-06-19T21:23:50.047Z,64.00
2017-06-19T21:26:17.602Z,64.00
2017-06-19T21:28:45.305Z,64.10
2017-06-19T21:31:12.874Z,64.20
2017-06-19T21:33:40.452Z,63.90
2017-06-19T21:36:08.064Z,64.50
2017-06-19T21:38:35.695Z,64.40
2017-06-19T21:41:03.269Z,64.00
2017-06-19T21:43:30.870Z,64.30
2017-06-19T21:45:58.510Z,64.00
2017-06-19T21:48:26.082Z,64.70
2017-06-19T21:50:53.660Z,64.80
2017-06-19T21:53:21.266Z,64.30
2017-06-19T21:55:48.839Z,64.10
2017-06-19T21:58:16.393Z,64.10
2017-06-19T22:00:44.019Z,64.80
2017-06-19T22:03:11.595Z,65.40
2017-06-19T22:05:39.163Z,64.80
2017-06-19T22:08:06.782Z,65.40
2017-06-19T22:10:34.363Z,65.00
2017-06-19T22:13:01.938Z,65.00
2017-06-19T22:15:29.520Z,65.80
2017-06-19T22:17:57.086Z,66.20
2017-06-19T22:20:24.684Z,65.90
2017-06-19T22:22:58.896Z,66.80
2017-06-19T22:25:26.482Z,66.80
2017-06-19T22:27:54.068Z,67.30
2017-06-19T22:30:21.626Z,66.40
2017-06-19T22:32:49.214Z,66.30
2017-06-19T22:35:16.782Z,66.80
2017-06-19T22:37:44.341Z,67.00
2017-06-19T22:40:12.002Z,68.50
2017-06-19T22:42:39.566Z,68.70
2017-06-19T22:45:07.120Z,69.00
2017-06-19T22:47:34.773Z,69.20
2017-06-19T22:50:02.379Z,68.00
2017-06-19T22:52:29.946Z,67.70
2017-06-19T22:54:57.514Z,68.20
2017-06-19T22:57:25.101Z,68.40
2017-06-19T22:59:52.689Z,69.40
2017-06-19T23:02:20.289Z,68.30
2017-06-19T23:04:47.842Z,68.30
2017-06-19T23:07:15.433Z,68.20
2017-06-19T23:09:43.005Z,68.10
2017-06-19T23:12:10.582Z,68.60
2017-06-19T23:14:38.147Z,69.00
2017-06-19T23:17:05.733Z,68.80
2017-06-19T23:19:33.305Z,68.90
2017-06-19T23:22:01.646Z,68.90
2017-06-19T23:24:29.230Z,68.80
2017-06-19T23:26:56.796Z,68.80
2017-06-19T23:29:25.134Z,69.90
2017-06-19T23:31:52.716Z,68.90
2017-06-19T23:34:20.309Z,69.10
2017-06-19T23:36:47.914Z,69.70
2017-06-19T23:39:15.493Z,69.70
2017-06-19T23:41:43.081Z,69.80
2017-06-19T23:44:11.427Z,69.70
2017-06-19T23:46:38.978Z,69.60
2017-06-19T23:49:06.571Z,69.70
2017-06-19T23:51:34.913Z,70.60
2017-06-19T23:54:02.474Z,70.10
2017-06-19T23:56:30.058Z,70.00
2017-06-19T23:58:57.631Z,70.00
